Skip Navigation Links Skip Navigation Links

Current Weather

Florennes, Belgium

For information only: do not use for flight planning or navigation.
Latest weather
Observation time Tuesday, October 19, 2021 11:25 AM CEST
Local time Tuesday, October 19, 2021 11:49 AM CEST
Flight conditions Low Instrument Meteorological Conditions
Winds
Wind direction Southwest (220°)
Wind speed 10 mph
Visibility 1.6 mi.
Sky condition
Ceiling 200 ft. overcast
Cloud layer overcast 200 ft.
Temperature 59°F
Dewpoint 59°F
Altimeter 30.12 in.Hg
Derived measurements
Relative humidity 100%
Density altitude 286 ft.
METAR EBFS 190925Z 22009KT 2500 OVC002 15/15 Q1020 AMB YLO TEMPO AMB

Settings

Location code

InnerDrive.Weather 4.0.6770.0 Release CLR 4.0.30319.42000
Copyright ©2018 Inner Drive Technology. All rights reserved. Portions Copyright ©1986-2018 David Braverman.

Find weather

Site navigation


Skip Navigation Links

Place info

Page info

PayPal - The safer, easier way to pay online!

Return home.

Copyright ©2021 Inner Drive Technology. Purveyors of fine, hand-crafted computer software. Page printed 2021-10-19T09:49:04 UTC.